Time;durP1;ratioP1;P1;durP2;ratioP2;P2;SDS_P1;SDS_P2;PMS_P1;PMS_P2;Temp;Humidity;BMP_temperature;BMP_pressure;BME280_temperature;BME280_humidity;BME280_pressure;Samples;Min_cycle;Max_cycle;Signal;HPM_P1;HPM_P2
2021/09/07 00:01:12;;;;;;;;;11.00;9.33;;;;;;;;5028885;28;45489;-79
2021/09/07 00:03:37;;;;;;;;;10.00;10.00;;;;;;;;5033020;28;46636;-81
2021/09/07 00:06:02;;;;;;;;;13.25;12.00;;;;;;;;5033227;28;45456;-80
2021/09/07 00:08:28;;;;;;;;;11.00;10.33;;;;;;;;5032724;28;45395;-81
2021/09/07 00:10:53;;;;;;;;;13.67;11.00;;;;;;;;5035395;28;45352;-80
2021/09/07 00:13:18;;;;;;;;;14.00;14.00;;;;;;;;5014722;28;45487;-80
2021/09/07 00:15:43;;;;;;;;;15.00;13.00;;;;;;;;5031913;28;45461;-81
2021/09/07 00:18:09;;;;;;;;;11.67;11.00;;;;;;;;5032158;28;45497;-80
2021/09/07 00:20:34;;;;;;;;;12.33;10.67;;;;;;;;5020711;28;45482;-81
2021/09/07 00:22:59;;;;;;;;;12.00;12.00;;;;;;;;5027994;28;47288;-78
2021/09/07 00:25:24;;;;;;;;;15.33;11.33;;;;;;;;5013896;28;45272;-81
2021/09/07 00:27:50;;;;;;;;;11.00;11.00;;;;;;;;5029950;28;45530;-76
2021/09/07 00:30:15;;;;;;;;;19.00;12.67;;;;;;;;5016655;28;45402;-81
2021/09/07 00:32:40;;;;;;;;;11.33;11.33;;;;;;;;5032352;28;46331;-80
2021/09/07 00:35:07;;;;;;;;;11.67;11.67;;;;;;;;5012407;28;45451;-80
2021/09/07 00:37:33;;;;;;;;;9.50;8.50;;;;;;;;5035029;28;45350;-80
2021/09/07 00:39:58;;;;;;;;;11.00;11.00;;;;;;;;5033334;28;45577;-80
2021/09/07 00:42:23;;;;;;;;;13.67;12.67;;;;;;;;5031173;28;46063;-80
2021/09/07 00:44:48;;;;;;;;;15.00;13.33;;;;;;;;5031712;28;45991;-80
2021/09/07 00:47:13;;;;;;;;;9.33;9.33;;;;;;;;5032769;28;45548;-80
2021/09/07 00:49:39;;;;;;;;;14.00;12.33;;;;;;;;5036436;28;45505;-80
2021/09/07 00:52:05;;;;;;;;;15.33;12.67;;;;;;;;5032042;28;46244;-80
2021/09/07 00:54:31;;;;;;;;;14.25;13.50;;;;;;;;5032217;28;45757;-80
2021/09/07 00:56:57;;;;;;;;;12.75;10.25;;;;;;;;5031385;28;45633;-79
2021/09/07 00:59:23;;;;;;;;;16.00;14.50;;;;;;;;5034237;28;45401;-80
2021/09/07 01:01:49;;;;;;;;;13.75;13.75;;;;;;;;5034751;28;45553;-79
2021/09/07 01:04:14;;;;;;;;;14.50;12.75;;;;;;;;5034842;28;45508;-80
2021/09/07 01:06:39;;;;;;;;;15.25;12.25;;;;;;;;5033181;28;45581;-80
2021/09/07 01:09:05;;;;;;;;;13.50;12.25;;;;;;;;5028794;28;45612;-80
2021/09/07 01:11:31;;;;;;;;;14.00;12.25;;;;;;;;5029915;28;45755;-81
2021/09/07 01:13:56;;;;;;;;;17.25;14.50;;;;;;;;5030747;28;45709;-81
2021/09/07 01:16:22;;;;;;;;;14.75;12.50;;;;;;;;5034667;28;45523;-80
2021/09/07 01:18:47;;;;;;;;;13.50;12.50;;;;;;;;5032338;28;45421;-80
2021/09/07 01:21:14;;;;;;;;;12.00;10.67;;;;;;;;5031615;28;46265;-81
2021/09/07 01:23:43;;;;;;;;;16.50;15.25;;;;;;;;5023733;28;46056;-81
2021/09/07 01:26:12;;;;;;;;;13.25;12.00;;;;;;;;5034288;28;45448;-81
2021/09/07 01:28:37;;;;;;;;;12.25;11.50;;;;;;;;5031734;28;45400;-81
2021/09/07 01:31:03;;;;;;;;;15.00;13.50;;;;;;;;5031534;28;45283;-80
2021/09/07 01:33:28;;;;;;;;;13.25;13.25;;;;;;;;5032672;28;45347;-81
2021/09/07 01:35:57;;;;;;;;;14.67;13.33;;;;;;;;5031647;28;45354;-81
2021/09/07 01:38:23;;;;;;;;;14.00;14.00;;;;;;;;5031970;28;45533;-81
2021/09/07 01:40:48;;;;;;;;;16.00;12.50;;;;;;;;5034229;28;45482;-80
2021/09/07 01:43:16;;;;;;;;;12.67;12.67;;;;;;;;5028418;28;45421;-80
2021/09/07 01:45:45;;;;;;;;;15.75;13.75;;;;;;;;5032103;28;45502;-80
2021/09/07 01:48:11;;;;;;;;;16.00;14.00;;;;;;;;5032591;28;45467;-80
2021/09/07 01:50:36;;;;;;;;;13.00;10.50;;;;;;;;5031606;28;46048;-81
2021/09/07 01:53:01;;;;;;;;;12.00;12.00;;;;;;;;5023507;28;45365;-80
2021/09/07 01:55:26;;;;;;;;;14.33;13.33;;;;;;;;5033799;28;45432;-80
2021/09/07 01:57:52;;;;;;;;;17.67;15.00;;;;;;;;5031634;28;45451;-80
2021/09/07 02:00:17;;;;;;;;;12.33;12.00;;;;;;;;5031799;28;46290;-80
2021/09/07 02:02:42;;;;;;;;;12.25;12.25;;;;;;;;5030722;28;45464;-81
2021/09/07 02:05:08;;;;;;;;;15.00;13.33;;;;;;;;5031332;28;45351;-80
2021/09/07 02:07:33;;;;;;;;;12.25;10.50;;;;;;;;5017663;28;45485;-80
2021/09/07 02:09:58;;;;;;;;;18.50;15.00;;;;;;;;5027710;28;45484;-82
2021/09/07 02:12:23;;;;;;;;;15.00;12.33;;;;;;;;5023632;28;45410;-80
2021/09/07 02:14:49;;;;;;;;;14.67;12.00;;;;;;;;5031960;28;45378;-81
2021/09/07 02:17:14;;;;;;;;;15.00;13.50;;;;;;;;5031527;28;45438;-80
2021/09/07 02:19:40;;;;;;;;;16.00;13.67;;;;;;;;5034035;28;46155;-80
2021/09/07 02:22:05;;;;;;;;;15.00;15.00;;;;;;;;5026169;28;45681;-80
2021/09/07 02:24:30;;;;;;;;;16.50;12.75;;;;;;;;5026379;28;45399;-80
2021/09/07 02:26:55;;;;;;;;;14.33;12.00;;;;;;;;5032164;28;45734;-81
2021/09/07 02:29:21;;;;;;;;;17.33;12.67;;;;;;;;5034446;28;45635;-82
2021/09/07 02:31:46;;;;;;;;;15.50;13.50;;;;;;;;5031932;28;45335;-80
2021/09/07 02:34:11;;;;;;;;;13.00;12.00;;;;;;;;5030588;28;45394;-82
2021/09/07 02:36:37;;;;;;;;;14.00;11.33;;;;;;;;5032027;28;45653;-79
2021/09/07 02:39:02;;;;;;;;;16.25;13.50;;;;;;;;5032181;28;45466;-80
2021/09/07 02:41:28;;;;;;;;;15.25;12.75;;;;;;;;5021655;28;45362;-80
2021/09/07 02:43:53;;;;;;;;;11.00;10.00;;;;;;;;5027779;28;45417;-80
2021/09/07 02:46:18;;;;;;;;;14.67;11.67;;;;;;;;5027321;28;45590;-80
2021/09/07 02:48:43;;;;;;;;;16.00;14.33;;;;;;;;5030930;28;46232;-80
2021/09/07 02:51:09;;;;;;;;;21.33;14.00;;;;;;;;5031493;28;46639;-80
2021/09/07 02:53:34;;;;;;;;;12.50;12.50;;;;;;;;5017500;28;45710;-77
2021/09/07 02:55:59;;;;;;;;;15.67;13.00;;;;;;;;5032741;28;45700;-79
2021/09/07 02:58:24;;;;;;;;;16.00;13.75;;;;;;;;5033065;28;45532;-79
2021/09/07 03:00:49;;;;;;;;;12.67;12.67;;;;;;;;5032145;28;45472;-81
2021/09/07 03:03:15;;;;;;;;;12.33;12.00;;;;;;;;5028785;28;45484;-80
2021/09/07 03:05:40;;;;;;;;;13.00;13.00;;;;;;;;5029942;28;45677;-81
2021/09/07 03:08:05;;;;;;;;;17.00;12.67;;;;;;;;5030379;28;46057;-81
2021/09/07 03:10:30;;;;;;;;;13.67;13.00;;;;;;;;5033440;28;45529;-81
2021/09/07 03:12:56;;;;;;;;;16.00;12.33;;;;;;;;5029498;28;46137;-80
2021/09/07 03:15:24;;;;;;;;;17.33;15.00;;;;;;;;5028624;28;45538;-81
2021/09/07 03:17:50;;;;;;;;;14.25;13.75;;;;;;;;5019581;28;45911;-81
2021/09/07 03:20:15;;;;;;;;;16.00;13.00;;;;;;;;5030245;28;45564;-78
2021/09/07 03:22:40;;;;;;;;;14.33;13.00;;;;;;;;5030729;28;45561;-81
2021/09/07 03:25:06;;;;;;;;;15.25;13.00;;;;;;;;5030235;28;45605;-81
2021/09/07 03:27:31;;;;;;;;;16.50;13.50;;;;;;;;5029606;28;45480;-80
2021/09/07 03:29:56;;;;;;;;;13.00;11.33;;;;;;;;5030083;28;45772;-78
2021/09/07 03:32:21;;;;;;;;;12.00;12.00;;;;;;;;5028252;28;45508;-79
2021/09/07 03:34:46;;;;;;;;;14.00;12.00;;;;;;;;5027192;28;45262;-81
2021/09/07 03:37:12;;;;;;;;;15.67;15.33;;;;;;;;5032878;28;45964;-80
2021/09/07 03:39:37;;;;;;;;;12.00;12.00;;;;;;;;5029867;28;45313;-78
2021/09/07 03:42:02;;;;;;;;;13.00;13.00;;;;;;;;5030570;28;45286;-79
2021/09/07 03:44:27;;;;;;;;;14.00;11.75;;;;;;;;5028166;28;45512;-79
2021/09/07 03:46:53;;;;;;;;;15.33;13.00;;;;;;;;5031590;28;46046;-79
2021/09/07 03:49:19;;;;;;;;;17.50;13.75;;;;;;;;5031506;28;45876;-81
2021/09/07 03:51:44;;;;;;;;;15.00;12.00;;;;;;;;5016846;28;45609;-78
2021/09/07 03:54:09;;;;;;;;;17.00;13.25;;;;;;;;5023587;28;45488;-81
2021/09/07 03:56:36;;;;;;;;;15.00;13.00;;;;;;;;5009617;28;45658;-78
2021/09/07 03:59:01;;;;;;;;;18.50;13.75;;;;;;;;5030837;28;45511;-80
2021/09/07 04:01:26;;;;;;;;;15.00;13.00;;;;;;;;5016054;28;45519;-81
2021/09/07 04:03:51;;;;;;;;;15.33;14.00;;;;;;;;5022824;28;45306;-80
2021/09/07 04:06:16;;;;;;;;;16.67;13.00;;;;;;;;5022363;28;46307;-79
2021/09/07 04:08:42;;;;;;;;;15.50;12.00;;;;;;;;5019248;28;45496;-80
2021/09/07 04:11:07;;;;;;;;;16.67;14.00;;;;;;;;5030681;28;45506;-80
2021/09/07 04:13:32;;;;;;;;;16.33;13.00;;;;;;;;5030743;28;45405;-79
2021/09/07 04:15:57;;;;;;;;;14.33;14.33;;;;;;;;5009279;28;46563;-79
2021/09/07 04:18:22;;;;;;;;;15.00;15.00;;;;;;;;5026971;28;45363;-80
2021/09/07 04:20:48;;;;;;;;;15.00;14.00;;;;;;;;5028779;28;45317;-79
2021/09/07 04:23:13;;;;;;;;;21.67;16.67;;;;;;;;5011508;28;45416;-81
2021/09/07 04:25:38;;;;;;;;;17.67;13.00;;;;;;;;5031534;28;47322;-80
2021/09/07 04:28:03;;;;;;;;;14.67;13.00;;;;;;;;5024857;28;45273;-80
2021/09/07 04:30:29;;;;;;;;;13.75;13.50;;;;;;;;5011600;28;45511;-80
2021/09/07 04:32:54;;;;;;;;;14.25;12.00;;;;;;;;5029131;28;45320;-80
2021/09/07 04:35:19;;;;;;;;;14.33;14.33;;;;;;;;5018628;28;45543;-80
2021/09/07 04:37:44;;;;;;;;;19.33;14.00;;;;;;;;5032568;28;45448;-80
2021/09/07 04:40:10;;;;;;;;;16.75;14.00;;;;;;;;5029817;28;45508;-79
2021/09/07 04:42:35;;;;;;;;;17.50;15.00;;;;;;;;5015403;28;45771;-79
2021/09/07 04:45:00;;;;;;;;;15.00;14.67;;;;;;;;5020156;28;46131;-80
2021/09/07 04:47:25;;;;;;;;;16.00;12.75;;;;;;;;5032179;28;45390;-80
2021/09/07 04:49:51;;;;;;;;;13.67;12.67;;;;;;;;5033097;28;45389;-80
2021/09/07 04:52:16;;;;;;;;;15.67;13.00;;;;;;;;5033453;28;45503;-80
2021/09/07 04:54:41;;;;;;;;;15.00;13.33;;;;;;;;5031912;28;45430;-80
2021/09/07 04:57:06;;;;;;;;;14.00;14.00;;;;;;;;5020910;28;45443;-80
2021/09/07 04:59:31;;;;;;;;;21.33;14.00;;;;;;;;5031688;28;45412;-80
2021/09/07 05:01:57;;;;;;;;;18.00;14.67;;;;;;;;5018105;28;45355;-79
2021/09/07 05:04:22;;;;;;;;;15.67;15.33;;;;;;;;5032619;28;45448;-79
2021/09/07 05:06:47;;;;;;;;;18.00;15.67;;;;;;;;5027092;28;45521;-80
2021/09/07 05:09:12;;;;;;;;;16.67;14.67;;;;;;;;5023213;28;45469;-79
2021/09/07 05:11:37;;;;;;;;;17.00;14.67;;;;;;;;5030066;28;45580;-79
2021/09/07 05:14:03;;;;;;;;;15.33;14.67;;;;;;;;5019561;28;45905;-80
2021/09/07 05:16:28;;;;;;;;;18.75;16.25;;;;;;;;5020683;28;45386;-80
2021/09/07 05:18:53;;;;;;;;;14.33;13.00;;;;;;;;5022781;28;45722;-79
2021/09/07 05:21:19;;;;;;;;;18.33;15.67;;;;;;;;5021475;28;45332;-80
2021/09/07 05:23:44;;;;;;;;;15.00;13.00;;;;;;;;5020078;28;46166;-79
2021/09/07 05:26:09;;;;;;;;;17.67;15.00;;;;;;;;5026625;28;45901;-80
2021/09/07 05:28:34;;;;;;;;;19.00;18.25;;;;;;;;5035012;28;45491;-79
2021/09/07 05:31:00;;;;;;;;;17.00;15.00;;;;;;;;5032346;28;45646;-80
2021/09/07 05:33:25;;;;;;;;;19.67;17.67;;;;;;;;5031236;28;46242;-79
2021/09/07 05:35:51;;;;;;;;;17.50;16.25;;;;;;;;5031557;28;45438;-80
2021/09/07 05:38:16;;;;;;;;;22.75;18.75;;;;;;;;5031809;28;45359;-79
2021/09/07 05:40:41;;;;;;;;;17.67;16.00;;;;;;;;5034969;28;45377;-80
2021/09/07 05:43:06;;;;;;;;;23.67;19.00;;;;;;;;5031679;28;47087;-80
2021/09/07 05:45:32;;;;;;;;;19.25;15.75;;;;;;;;5031469;28;45579;-79
2021/09/07 05:47:57;;;;;;;;;20.50;15.50;;;;;;;;5029782;28;45657;-82
2021/09/07 05:50:22;;;;;;;;;20.00;17.67;;;;;;;;5005674;28;46676;-79
2021/09/07 05:52:48;;;;;;;;;18.75;17.75;;;;;;;;5031871;28;48315;-79
2021/09/07 05:55:14;;;;;;;;;15.33;15.33;;;;;;;;5031590;28;45364;-79
2021/09/07 05:57:39;;;;;;;;;18.00;18.00;;;;;;;;5031575;28;46713;-78
2021/09/07 06:00:05;;;;;;;;;18.75;18.25;;;;;;;;5031749;28;45568;-79
2021/09/07 06:02:31;;;;;;;;;23.00;16.75;;;;;;;;5030067;28;46227;-79
2021/09/07 06:04:56;;;;;;;;;18.33;15.67;;;;;;;;5032813;28;45539;-80
2021/09/07 06:07:21;;;;;;;;;17.00;15.67;;;;;;;;5032825;28;45432;-78
2021/09/07 06:09:46;;;;;;;;;21.67;19.67;;;;;;;;5031612;28;46172;-79
2021/09/07 06:12:11;;;;;;;;;20.00;16.67;;;;;;;;5032053;28;45370;-79
2021/09/07 06:14:37;;;;;;;;;18.50;16.75;;;;;;;;5029922;28;45520;-78
2021/09/07 06:17:02;;;;;;;;;16.75;16.25;;;;;;;;5031209;28;45487;-79
2021/09/07 06:19:27;;;;;;;;;17.25;16.50;;;;;;;;5034316;28;45511;-78
2021/09/07 06:21:53;;;;;;;;;19.33;17.33;;;;;;;;5028636;28;48512;-78
2021/09/07 06:24:18;;;;;;;;;16.50;16.50;;;;;;;;5030730;28;45374;-79
2021/09/07 06:26:44;;;;;;;;;19.67;17.00;;;;;;;;5030470;28;45421;-79
2021/09/07 06:29:09;;;;;;;;;16.75;15.00;;;;;;;;5031760;28;45553;-78
2021/09/07 06:31:34;;;;;;;;;17.75;15.75;;;;;;;;5031594;28;45498;-79
2021/09/07 06:33:59;;;;;;;;;19.67;16.67;;;;;;;;5018560;28;45813;-79
2021/09/07 06:36:25;;;;;;;;;19.00;17.50;;;;;;;;5015740;28;45392;-79
2021/09/07 06:38:50;;;;;;;;;16.00;14.00;;;;;;;;5018936;28;45386;-80
2021/09/07 06:41:15;;;;;;;;;20.75;17.25;;;;;;;;5014097;28;47418;-79
2021/09/07 06:43:41;;;;;;;;;16.25;15.50;;;;;;;;5022180;28;45390;-79
2021/09/07 06:46:07;;;;;;;;;19.00;14.50;;;;;;;;5030953;28;45495;-79
2021/09/07 06:48:32;;;;;;;;;17.25;15.50;;;;;;;;5032424;28;45680;-80
2021/09/07 06:50:57;;;;;;;;;18.50;17.75;;;;;;;;5031000;28;45796;-79
2021/09/07 06:53:22;;;;;;;;;18.33;16.00;;;;;;;;5019732;28;45524;-81
2021/09/07 06:55:48;;;;;;;;;17.75;16.50;;;;;;;;5033116;28;45485;-78
2021/09/07 06:58:13;;;;;;;;;18.50;17.50;;;;;;;;5031901;28;45537;-79
2021/09/07 07:00:38;;;;;;;;;17.67;15.00;;;;;;;;5030386;28;46073;-80
2021/09/07 07:03:03;;;;;;;;;19.33;16.33;;;;;;;;5030724;28;45399;-79
2021/09/07 07:05:29;;;;;;;;;25.67;17.00;;;;;;;;5028996;28;45922;-79
2021/09/07 07:07:54;;;;;;;;;17.50;16.25;;;;;;;;5019302;28;45481;-80
2021/09/07 07:10:19;;;;;;;;;20.33;15.33;;;;;;;;5020483;28;45481;-78
2021/09/07 07:12:44;;;;;;;;;21.75;19.00;;;;;;;;5018059;28;45489;-79
2021/09/07 07:15:10;;;;;;;;;25.00;22.67;;;;;;;;5018147;28;45475;-79
2021/09/07 07:17:35;;;;;;;;;22.75;20.50;;;;;;;;5017494;28;45365;-79
2021/09/07 07:20:00;;;;;;;;;23.00;20.00;;;;;;;;5016849;28;45417;-79
2021/09/07 07:22:26;;;;;;;;;22.00;15.25;;;;;;;;5017737;28;45380;-79
2021/09/07 07:24:51;;;;;;;;;22.00;19.00;;;;;;;;5021908;28;45503;-80
2021/09/07 07:27:17;;;;;;;;;18.25;14.25;;;;;;;;5018082;28;45437;-79
2021/09/07 07:29:42;;;;;;;;;15.67;14.67;;;;;;;;5018157;28;46946;-79
2021/09/07 07:32:07;;;;;;;;;18.67;15.00;;;;;;;;5018303;28;45589;-78
2021/09/07 07:34:33;;;;;;;;;21.75;17.00;;;;;;;;5019886;28;45383;-79
2021/09/07 07:37:00;;;;;;;;;19.00;18.00;;;;;;;;5017119;28;45394;-80
2021/09/07 07:39:25;;;;;;;;;17.25;15.00;;;;;;;;5016238;28;45386;-79
2021/09/07 07:41:50;;;;;;;;;17.25;14.25;;;;;;;;5015178;28;45443;-80
2021/09/07 07:44:16;;;;;;;;;17.67;16.33;;;;;;;;5021463;28;45521;-77
2021/09/07 07:46:41;;;;;;;;;20.00;16.75;;;;;;;;5019481;28;45410;-79
2021/09/07 07:49:06;;;;;;;;;23.67;20.67;;;;;;;;5017534;28;45346;-80
2021/09/07 07:51:32;;;;;;;;;17.67;17.33;;;;;;;;5024760;28;45327;-81
2021/09/07 07:53:57;;;;;;;;;19.75;16.50;;;;;;;;5010999;28;45639;-78
2021/09/07 07:56:22;;;;;;;;;17.67;15.67;;;;;;;;5007919;28;46692;-78
2021/09/07 07:58:47;;;;;;;;;17.00;14.67;;;;;;;;5011762;28;46279;-78
2021/09/07 08:01:13;;;;;;;;;19.25;18.50;;;;;;;;5013700;28;45433;-79
2021/09/07 08:03:40;;;;;;;;;17.00;16.00;;;;;;;;5024974;28;45568;-79
2021/09/07 08:06:05;;;;;;;;;16.50;14.25;;;;;;;;5015501;28;45578;-78
2021/09/07 08:08:30;;;;;;;;;15.00;14.00;;;;;;;;5026084;28;46031;-79
2021/09/07 08:10:56;;;;;;;;;19.00;17.00;;;;;;;;5023247;28;45386;-78
2021/09/07 08:13:21;;;;;;;;;19.75;17.50;;;;;;;;5014861;28;45445;-79
2021/09/07 08:15:46;;;;;;;;;19.50;16.00;;;;;;;;5025555;28;45376;-79
2021/09/07 08:18:12;;;;;;;;;18.33;15.00;;;;;;;;5022372;28;46111;-78
2021/09/07 08:20:38;;;;;;;;;16.50;11.25;;;;;;;;5032013;28;45508;-78
2021/09/07 08:23:03;;;;;;;;;18.50;16.00;;;;;;;;5034426;28;45464;-78
2021/09/07 08:25:29;;;;;;;;;17.00;15.00;;;;;;;;5018620;28;45528;-78
2021/09/07 08:27:54;;;;;;;;;18.00;14.75;;;;;;;;5028086;28;45991;-78
2021/09/07 08:30:19;;;;;;;;;18.75;15.00;;;;;;;;5026843;28;45485;-79
2021/09/07 08:32:45;;;;;;;;;19.33;18.00;;;;;;;;5026201;28;45438;-79
2021/09/07 08:35:11;;;;;;;;;24.75;21.25;;;;;;;;5029536;28;45339;-78
2021/09/07 08:37:36;;;;;;;;;18.25;16.25;;;;;;;;5003222;28;46241;-78
2021/09/07 08:40:03;;;;;;;;;20.75;16.75;;;;;;;;5027874;28;45493;-78
2021/09/07 08:42:28;;;;;;;;;17.50;16.75;;;;;;;;5031323;28;45494;-77
2021/09/07 08:44:54;;;;;;;;;20.50;17.00;;;;;;;;5019556;28;45386;-78
2021/09/07 08:47:19;;;;;;;;;23.50;18.75;;;;;;;;5027990;28;46202;-79
2021/09/07 08:49:45;;;;;;;;;18.00;16.50;;;;;;;;5017571;28;45552;-78
2021/09/07 08:52:13;;;;;;;;;18.50;15.75;;;;;;;;5027861;28;45419;-78
2021/09/07 08:54:39;;;;;;;;;4.50;0.00;;;;;;;;5025810;28;45557;-78
2021/09/07 08:57:04;;;;;;;;;16.25;13.25;;;;;;;;5032322;28;45748;-78
2021/09/07 08:59:30;;;;;;;;;26.50;19.50;;;;;;;;5032998;28;45461;-79
2021/09/07 09:01:56;;;;;;;;;22.00;18.75;;;;;;;;5028401;28;45403;-78
2021/09/07 09:04:25;;;;;;;;;19.75;17.75;;;;;;;;5032068;28;45453;-78
2021/09/07 09:06:50;;;;;;;;;16.25;15.25;;;;;;;;5028091;28;46036;-79
2021/09/07 09:09:15;;;;;;;;;15.25;14.00;;;;;;;;5032394;28;45357;-78
2021/09/07 09:11:54;;;;;;;;;13.00;13.00;;;;;;;;5032597;28;45559;-79
2021/09/07 09:14:32;;;;;;;;;19.75;15.50;;;;;;;;5028308;28;45434;-79
2021/09/07 09:16:58;;;;;;;;;17.75;14.75;;;;;;;;5033920;28;45545;-77
2021/09/07 09:19:23;;;;;;;;;13.00;11.75;;;;;;;;5033254;28;45384;-77
2021/09/07 09:21:48;;;;;;;;;13.33;12.33;;;;;;;;5031956;28;45453;-78
2021/09/07 09:24:21;;;;;;;;;15.50;14.50;;;;;;;;5032852;28;45744;-78
2021/09/07 09:26:51;;;;;;;;;18.25;14.75;;;;;;;;5030726;28;47091;-78
2021/09/07 09:29:35;;;;;;;;;14.00;12.25;;;;;;;;5032271;28;45758;-78
2021/09/07 09:32:00;;;;;;;;;14.25;13.50;;;;;;;;5033248;28;45577;-78
2021/09/07 09:34:26;;;;;;;;;13.00;12.33;;;;;;;;5033943;28;45458;-77
2021/09/07 09:37:10;;;;;;;;;15.00;13.00;;;;;;;;5028820;28;45563;-78
2021/09/07 09:39:40;;;;;;;;;13.25;12.00;;;;;;;;5030631;28;45575;-78
2021/09/07 09:42:06;;;;;;;;;12.75;12.50;;;;;;;;5031970;28;45520;-77
2021/09/07 09:44:31;;;;;;;;;14.75;11.25;;;;;;;;5031345;28;45381;-79
2021/09/07 09:46:56;;;;;;;;;16.67;12.67;;;;;;;;5033534;28;46085;-78
2021/09/07 09:49:23;;;;;;;;;10.33;10.33;;;;;;;;5031742;28;45365;-78
2021/09/07 09:51:49;;;;;;;;;10.75;10.25;;;;;;;;5031496;28;45528;-78
2021/09/07 09:54:15;;;;;;;;;14.50;13.50;;;;;;;;5028316;28;45473;-78
2021/09/07 09:56:40;;;;;;;;;12.00;10.50;;;;;;;;5028386;28;46582;-79
2021/09/07 09:59:06;;;;;;;;;14.00;12.25;;;;;;;;5030958;28;45440;-77
2021/09/07 10:01:31;;;;;;;;;12.75;10.75;;;;;;;;5032236;28;45493;-78
2021/09/07 10:04:00;;;;;;;;;13.00;12.00;;;;;;;;5030794;28;48756;-78
2021/09/07 10:06:26;;;;;;;;;9.00;9.00;;;;;;;;5028992;28;45519;-77
2021/09/07 10:08:52;;;;;;;;;13.00;11.50;;;;;;;;5030858;28;45397;-80
2021/09/07 10:11:21;;;;;;;;;15.50;13.75;;;;;;;;5031405;28;45361;-79
2021/09/07 10:13:49;;;;;;;;;13.25;10.50;;;;;;;;5034312;28;45460;-79
2021/09/07 10:16:42;;;;;;;;;16.50;13.25;;;;;;;;5033011;28;45528;-78
2021/09/07 10:26:37;;;;;;;;;15.00;12.50;;;;;;;;5030654;28;45537;-78
2021/09/07 10:29:04;;;;;;;;;14.25;12.75;;;;;;;;5023252;28;45429;-78
2021/09/07 10:31:38;;;;;;;;;15.25;12.25;;;;;;;;5032911;28;45387;-79
2021/09/07 10:34:03;;;;;;;;;16.75;13.00;;;;;;;;5030821;28;45683;-79
2021/09/07 10:36:31;;;;;;;;;12.33;12.33;;;;;;;;5030695;28;45633;-77
2021/09/07 10:39:01;;;;;;;;;13.25;11.75;;;;;;;;5029870;28;45880;-79
2021/09/07 10:41:29;;;;;;;;;13.00;13.00;;;;;;;;5026442;28;45522;-78
2021/09/07 10:43:58;;;;;;;;;13.00;11.50;;;;;;;;5026299;28;45509;-79
2021/09/07 10:46:39;;;;;;;;;12.00;12.00;;;;;;;;5028909;28;47216;-78
2021/09/07 10:49:15;;;;;;;;;11.25;11.25;;;;;;;;5031593;28;45487;-78
2021/09/07 10:51:58;;;;;;;;;10.75;10.50;;;;;;;;5030419;28;48963;-78
2021/09/07 10:54:25;;;;;;;;;13.25;11.75;;;;;;;;5029483;28;45339;-79
2021/09/07 10:56:50;;;;;;;;;12.25;12.00;;;;;;;;5035071;28;47220;-80
2021/09/07 10:59:34;;;;;;;;;11.33;11.00;;;;;;;;5030997;28;45488;-79
2021/09/07 11:02:18;;;;;;;;;13.75;13.00;;;;;;;;5031811;28;45540;-79
2021/09/07 11:04:49;;;;;;;;;12.50;12.50;;;;;;;;5030516;28;45404;-78
2021/09/07 11:07:47;;;;;;;;;10.00;9.50;;;;;;;;5032909;28;45576;-77
2021/09/07 11:10:18;;;;;;;;;11.00;11.00;;;;;;;;4971800;28;45419;-79
2021/09/07 11:13:10;;;;;;;;;12.50;11.50;;;;;;;;4961161;28;45488;-75
2021/09/07 11:15:39;;;;;;;;;10.50;10.00;;;;;;;;4869676;29;45522;-78
2021/09/07 11:18:06;;;;;;;;;11.25;10.00;;;;;;;;4871402;29;46295;-78
2021/09/07 11:20:50;;;;;;;;;8.25;8.25;;;;;;;;4875275;29;45430;-78
2021/09/07 11:23:15;;;;;;;;;10.25;10.25;;;;;;;;4871217;29;45392;-78
2021/09/07 11:25:44;;;;;;;;;12.75;10.00;;;;;;;;4860203;29;45367;-79
2021/09/07 11:28:10;;;;;;;;;11.50;11.00;;;;;;;;4871306;29;45369;-79
2021/09/07 11:30:35;;;;;;;;;10.75;10.50;;;;;;;;4854848;29;45640;-78
2021/09/07 11:33:00;;;;;;;;;12.00;12.00;;;;;;;;4875480;29;45320;-78
2021/09/07 11:35:26;;;;;;;;;11.00;11.00;;;;;;;;4859625;29;45501;-78
2021/09/07 11:38:02;;;;;;;;;10.25;10.25;;;;;;;;4875626;29;47120;-78
2021/09/07 11:40:27;;;;;;;;;11.00;11.00;;;;;;;;4875889;29;45284;-77
2021/09/07 11:42:53;;;;;;;;;12.25;11.00;;;;;;;;4874412;29;45482;-79
2021/09/07 11:45:26;;;;;;;;;10.50;9.50;;;;;;;;4886563;28;45597;-78
2021/09/07 11:47:52;;;;;;;;;11.25;11.25;;;;;;;;4918032;28;46176;-78
2021/09/07 11:50:24;;;;;;;;;10.00;10.00;;;;;;;;4921305;28;45510;-78
2021/09/07 11:52:51;;;;;;;;;13.00;10.75;;;;;;;;4987757;28;45596;-78
2021/09/07 11:55:35;;;;;;;;;11.25;11.25;;;;;;;;5029031;28;45513;-78
2021/09/07 11:58:00;;;;;;;;;10.75;10.75;;;;;;;;5032030;28;46285;-78
2021/09/07 12:00:25;;;;;;;;;10.00;10.00;;;;;;;;5031537;28;45363;-80
2021/09/07 12:03:12;;;;;;;;;9.33;9.33;;;;;;;;5029391;28;45804;-78
2021/09/07 12:05:53;;;;;;;;;9.00;9.00;;;;;;;;5028419;28;45410;-78
2021/09/07 12:08:18;;;;;;;;;9.00;9.00;;;;;;;;5018985;28;45504;-79
2021/09/07 12:10:56;;;;;;;;;10.00;10.00;;;;;;;;5036443;28;45620;-79
2021/09/07 12:13:22;;;;;;;;;9.00;9.00;;;;;;;;5032733;28;45341;-79
2021/09/07 12:15:48;;;;;;;;;10.00;9.50;;;;;;;;5030895;28;45539;-79
2021/09/07 12:18:25;;;;;;;;;10.00;10.00;;;;;;;;5032066;28;45454;-79
2021/09/07 12:20:50;;;;;;;;;8.00;8.00;;;;;;;;5020806;28;45476;-79
2021/09/07 12:23:32;;;;;;;;;8.67;8.67;;;;;;;;5027118;28;45576;-78
2021/09/07 12:25:57;;;;;;;;;7.00;7.00;;;;;;;;5034133;28;45388;-79
2021/09/07 12:28:22;;;;;;;;;8.00;8.00;;;;;;;;5034431;28;46089;-79
2021/09/07 12:30:48;;;;;;;;;11.67;9.00;;;;;;;;5032489;28;45351;-80
2021/09/07 12:33:16;;;;;;;;;9.75;9.75;;;;;;;;5027598;28;45616;-79
2021/09/07 12:36:03;;;;;;;;;9.00;9.00;;;;;;;;5032887;28;45426;-79
2021/09/07 12:38:29;;;;;;;;;9.25;9.25;;;;;;;;5029035;28;45625;-80
2021/09/07 12:40:56;;;;;;;;;10.00;10.00;;;;;;;;5029138;28;45520;-80
2021/09/07 12:43:22;;;;;;;;;11.50;10.50;;;;;;;;5027875;28;45359;-79
2021/09/07 12:46:14;;;;;;;;;8.75;8.00;;;;;;;;5028432;28;45528;-79
2021/09/07 12:48:40;;;;;;;;;8.00;8.00;;;;;;;;5025126;28;45683;-79
2021/09/07 12:51:07;;;;;;;;;10.00;10.00;;;;;;;;5029743;28;45823;-79
2021/09/07 12:53:38;;;;;;;;;9.00;9.00;;;;;;;;5033094;28;45537;-81
2021/09/07 12:56:04;;;;;;;;;10.25;8.00;;;;;;;;5016541;28;46921;-79
2021/09/07 12:58:30;;;;;;;;;8.00;8.00;;;;;;;;5024853;28;46564;-79
2021/09/07 13:00:55;;;;;;;;;8.00;8.00;;;;;;;;5029548;28;45735;-79
2021/09/07 13:03:20;;;;;;;;;7.00;7.00;;;;;;;;5032022;28;48828;-80
2021/09/07 13:05:46;;;;;;;;;8.00;8.00;;;;;;;;5031907;28;45496;-78
2021/09/07 13:08:11;;;;;;;;;7.75;7.75;;;;;;;;5032660;28;46011;-80
2021/09/07 13:10:37;;;;;;;;;7.00;7.00;;;;;;;;5034409;28;45429;-81
2021/09/07 13:13:02;;;;;;;;;7.75;7.75;;;;;;;;5032147;28;45623;-79
2021/09/07 13:15:28;;;;;;;;;9.00;8.00;;;;;;;;5031690;28;45440;-80
2021/09/07 13:17:53;;;;;;;;;7.25;6.25;;;;;;;;5032110;28;45650;-80
2021/09/07 13:20:19;;;;;;;;;8.00;7.33;;;;;;;;5031758;28;45370;-80
2021/09/07 13:22:44;;;;;;;;;7.75;7.75;;;;;;;;5035132;28;45318;-81
2021/09/07 13:25:09;;;;;;;;;8.50;8.00;;;;;;;;5032110;28;45430;-80
2021/09/07 13:27:35;;;;;;;;;9.00;9.00;;;;;;;;5031785;28;46331;-81
2021/09/07 13:30:00;;;;;;;;;7.00;7.00;;;;;;;;5031805;28;45394;-78
2021/09/07 13:32:25;;;;;;;;;7.50;7.50;;;;;;;;5033190;28;45362;-80
2021/09/07 13:34:51;;;;;;;;;8.00;8.00;;;;;;;;5033956;28;45623;-80
2021/09/07 13:37:16;;;;;;;;;8.75;8.75;;;;;;;;5033254;28;46001;-82
2021/09/07 13:39:41;;;;;;;;;7.67;7.67;;;;;;;;5031149;28;45509;-81
2021/09/07 13:42:06;;;;;;;;;7.50;7.50;;;;;;;;5031600;28;45541;-81
2021/09/07 13:44:32;;;;;;;;;9.25;8.00;;;;;;;;5031981;28;45619;-80
2021/09/07 13:46:57;;;;;;;;;8.00;8.00;;;;;;;;5032300;28;47072;-80
2021/09/07 13:49:22;;;;;;;;;7.00;7.00;;;;;;;;5032068;28;45449;-82
2021/09/07 13:51:47;;;;;;;;;8.00;8.00;;;;;;;;5030975;28;45371;-80
2021/09/07 13:54:12;;;;;;;;;7.75;7.25;;;;;;;;5025063;28;45525;-81
2021/09/07 13:56:38;;;;;;;;;6.00;6.00;;;;;;;;5020263;28;45456;-80
2021/09/07 13:59:03;;;;;;;;;7.50;7.50;;;;;;;;5025703;28;45483;-80
2021/09/07 14:01:28;;;;;;;;;9.50;7.00;;;;;;;;5034016;28;45371;-81
2021/09/07 14:03:54;;;;;;;;;8.00;8.00;;;;;;;;5030096;28;45400;-81
2021/09/07 14:06:19;;;;;;;;;7.25;7.25;;;;;;;;5031298;28;45299;-81
2021/09/07 14:08:44;;;;;;;;;8.33;7.33;;;;;;;;5029942;28;45581;-80
2021/09/07 14:11:10;;;;;;;;;6.00;5.00;;;;;;;;5021025;28;45457;-81
2021/09/07 14:13:35;;;;;;;;;7.00;7.00;;;;;;;;5034027;28;45373;-82
2021/09/07 14:16:00;;;;;;;;;8.00;8.00;;;;;;;;5029766;28;46154;-81
2021/09/07 14:18:29;;;;;;;;;8.00;7.33;;;;;;;;5031417;28;45591;-80
2021/09/07 14:20:58;;;;;;;;;6.00;6.00;;;;;;;;5029850;28;45534;-80
2021/09/07 14:23:24;;;;;;;;;5.00;5.00;;;;;;;;5030576;28;45604;-80
2021/09/07 14:25:49;;;;;;;;;8.25;6.00;;;;;;;;5032627;28;46955;-80